createdAt,value
2023-01-07T00:09:22.652Z,64.554
2023-01-07T00:24:24.886Z,64.562
2023-01-07T00:39:27.113Z,66.538
2023-01-07T00:54:29.307Z,65.836
2023-01-07T01:09:31.619Z,66.122
2023-01-07T01:24:33.846Z,65.504
2023-01-07T01:39:36.024Z,67.84
2023-01-07T01:54:38.307Z,70.001
2023-01-07T02:09:40.547Z,67.078
2023-01-07T02:24:42.819Z,66.8
2023-01-07T02:39:45.088Z,66.025
2023-01-07T02:54:47.491Z,66.303
2023-01-07T03:09:49.748Z,66.441
2023-01-07T03:24:52.043Z,66.774
2023-01-07T03:39:54.356Z,68.072
2023-01-07T03:54:56.570Z,67.783
2023-01-07T04:09:58.776Z,66.328
2023-01-07T04:25:01.072Z,66.413
2023-01-07T04:40:03.325Z,66.814
2023-01-07T04:55:05.574Z,67.258
2023-01-07T05:10:07.842Z,66.723
2023-01-07T05:25:10.116Z,66.037
2023-01-07T05:40:12.385Z,68.21
2023-01-07T05:55:14.599Z,66.982
2023-01-07T06:10:16.828Z,69.489
2023-01-07T06:25:19.024Z,69.016
2023-01-07T06:40:21.249Z,67.763
2023-01-07T06:55:23.492Z,67.421
2023-01-07T07:10:25.695Z,68.054
2023-01-07T07:25:27.870Z,69.187
2023-01-07T07:40:30.282Z,69.048
2023-01-07T07:55:32.723Z,69.765
2023-01-07T08:10:35.178Z,67.344
2023-01-07T08:25:37.415Z,69.355
2023-01-07T08:40:39.895Z,69.784
2023-01-07T08:55:42.106Z,70.516
2023-01-07T09:10:44.379Z,70.116
2023-01-07T09:25:46.714Z,70.61
2023-01-07T09:40:49.077Z,70.582
2023-01-07T09:56:10.738Z,75.087
2023-01-07T10:11:14.916Z,74.324
2023-01-07T10:26:17.148Z,72.413
2023-01-07T10:41:19.404Z,70.629
2023-01-07T10:56:21.695Z,70.718
2023-01-07T11:11:23.939Z,72.073
2023-01-07T11:26:26.241Z,69.786
2023-01-07T11:41:28.521Z,69.86
2023-01-07T11:56:30.757Z,71.2
2023-01-07T12:11:33.004Z,73.503
2023-01-07T12:26:35.222Z,71.316
2023-01-07T12:41:37.506Z,70.347
2023-01-07T12:56:39.866Z,71.267
2023-01-07T13:11:42.111Z,68.926
2023-01-07T13:26:44.309Z,69.617
2023-01-07T13:41:46.740Z,72.694
2023-01-07T13:56:49.045Z,72.823
2023-01-07T14:11:51.408Z,70.678
2023-01-07T14:26:53.678Z,68.165
2023-01-07T14:41:56.014Z,69.706
2023-01-07T14:56:58.219Z,68.822
2023-01-07T15:12:00.652Z,68.599
2023-01-07T15:27:02.883Z,68.566
2023-01-07T15:42:05.092Z,69.056
2023-01-07T15:57:07.657Z,73.254
2023-01-07T16:12:09.953Z,71.734
2023-01-07T16:27:12.217Z,71.708
2023-01-07T16:42:14.590Z,71.335
2023-01-07T16:57:16.830Z,70.563
2023-01-07T17:12:19.071Z,69.082
2023-01-07T17:27:21.306Z,68.504
2023-01-07T17:42:23.535Z,69.075
2023-01-07T17:57:25.754Z,72.818
2023-01-07T18:12:27.967Z,70.352
2023-01-07T18:27:30.452Z,69.412
2023-01-07T18:42:32.686Z,70.474
2023-01-07T18:57:35.200Z,69.064
2023-01-07T19:12:37.432Z,68.97
2023-01-07T19:27:39.709Z,69.23
2023-01-07T19:42:42.102Z,68.889
2023-01-07T19:57:44.352Z,70.523
2023-01-07T20:12:46.729Z,68.701
2023-01-07T20:27:49.017Z,67.936
2023-01-07T20:42:51.279Z,68.499
2023-01-07T20:57:53.509Z,65.749
2023-01-07T21:12:55.909Z,65.88
2023-01-07T21:27:58.133Z,66.711
2023-01-07T21:43:00.326Z,65.558
2023-01-07T21:58:02.593Z,66.746
2023-01-07T22:13:04.863Z,63.974
2023-01-07T22:28:07.139Z,65.238
2023-01-07T22:43:09.535Z,65.081
2023-01-07T22:58:11.774Z,65.869
2023-01-07T23:13:14.042Z,65.979
2023-01-07T23:28:16.386Z,66.307
2023-01-07T23:43:18.802Z,65.526
2023-01-07T23:58:21.019Z,67.847
